Time;durP1;ratioP1;P1;durP2;ratioP2;P2;SDS_P1;SDS_P2;PMS_P1;PMS_P2;Temp;Humidity;BMP_temperature;BMP_pressure;BME280_temperature;BME280_humidity;BME280_pressure;Samples;Min_cycle;Max_cycle;Signal;HPM_P1;HPM_P2
2024/01/08 00:01:40;;;;;;;2.60;1.40;;;-0.40;99.90;;;0.22;100.00;98750.06;4964998;28;21332;-82
2024/01/08 00:04:10;;;;;;;2.20;1.33;;;-0.20;99.90;;;0.20;100.00;98749.34;4966355;28;21028;-83
2024/01/08 00:06:39;;;;;;;1.40;1.30;;;-0.40;99.90;;;0.26;100.00;98742.94;4967713;28;20471;-82
2024/01/08 00:09:07;;;;;;;1.53;1.43;;;-0.30;99.90;;;0.28;100.00;98749.63;4965669;28;20487;-82
2024/01/08 00:11:38;;;;;;;1.50;1.40;;;-0.30;99.90;;;0.22;100.00;98754.38;4966308;28;20840;-82
2024/01/08 00:14:06;;;;;;;1.50;1.23;;;-0.40;99.90;;;0.26;100.00;98763.53;4967093;28;20479;-83
2024/01/08 00:16:35;;;;;;;1.50;1.20;;;-0.20;99.90;;;0.22;100.00;98754.38;4965751;28;20471;-82
2024/01/08 00:19:03;;;;;;;1.97;1.70;;;-0.30;99.90;;;0.07;100.00;98753.66;4964380;28;20471;-82
2024/01/08 00:21:32;;;;;;;1.57;1.47;;;-0.50;99.90;;;0.06;100.00;98753.78;4964857;28;20475;-82
2024/01/08 00:24:00;;;;;;;2.17;1.40;;;-0.50;99.90;;;0.17;100.00;98752.13;4965976;28;20459;-83
2024/01/08 00:26:30;;;;;;;1.50;1.40;;;-0.30;99.90;;;0.23;100.00;98751.72;4967454;28;20526;-83
2024/01/08 00:29:01;;;;;;;1.60;1.20;;;-0.30;99.90;;;0.14;100.00;98744.59;4965588;28;20537;-82
2024/01/08 00:31:30;;;;;;;2.07;1.20;;;-0.30;99.90;;;0.05;100.00;98755.53;4964701;28;20482;-83
2024/01/08 00:33:58;;;;;;;2.20;1.53;;;-0.50;99.90;;;0.10;100.00;98756.03;4966696;28;20496;-82
2024/01/08 00:36:27;;;;;;;1.50;1.30;;;-0.40;99.90;;;0.11;100.00;98757.66;4966440;28;20465;-83
2024/01/08 00:38:55;;;;;;;1.60;1.50;;;-0.40;99.90;;;0.23;100.00;98754.28;4966622;28;20468;-82
2024/01/08 00:41:24;;;;;;;2.60;1.43;;;-0.20;99.90;;;0.29;100.00;98756.41;4963568;28;20476;-82
2024/01/08 00:43:53;;;;;;;1.83;1.30;;;-0.20;99.90;;;0.29;100.00;98761.56;4965075;28;20530;-83
2024/01/08 00:46:24;;;;;;;1.50;1.17;;;-0.20;99.90;;;0.19;100.00;98750.28;4964230;28;20480;-83
2024/01/08 00:48:52;;;;;;;1.30;1.20;;;-0.20;99.90;;;0.17;100.00;98752.13;4965910;28;20468;-82
2024/01/08 00:51:20;;;;;;;9.60;1.53;;;-0.30;99.90;;;0.12;100.00;98764.47;4965804;28;20534;-82
2024/01/08 00:53:49;;;;;;;1.10;1.00;;;-0.30;99.90;;;0.07;100.00;98755.44;4964922;28;20468;-82
2024/01/08 00:56:18;;;;;;;2.33;1.13;;;-0.40;99.90;;;0.06;100.00;98764.06;4965221;28;20481;-82
2024/01/08 00:58:47;;;;;;;1.30;1.20;;;-0.40;99.90;;;0.09;100.00;98756.97;4965108;28;21096;-83
2024/01/08 01:01:16;;;;;;;1.17;1.07;;;-0.30;99.90;;;0.06;100.00;98759.75;4965937;28;20501;-82
2024/01/08 01:03:46;;;;;;;1.27;1.10;;;-0.40;99.90;;;0.07;100.00;98760.56;4964867;28;20486;-82
2024/01/08 01:06:21;;;;;;;1.13;1.07;;;-0.40;99.90;;;0.00;100.00;98765.31;4965533;28;20478;-83
2024/01/08 01:08:49;;;;;;;1.10;1.00;;;-0.60;99.90;;;-0.08;100.00;98763.25;4964928;28;20485;-82
2024/01/08 01:11:19;;;;;;;1.03;0.93;;;-0.60;99.90;;;-0.12;100.00;98766.94;4966394;28;20498;-83
2024/01/08 01:13:48;;;;;;;1.13;1.00;;;-0.70;99.90;;;-0.05;100.00;98760.47;4966414;28;20468;-82
2024/01/08 01:16:17;;;;;;;1.70;1.10;;;-0.60;99.90;;;-0.02;100.00;98765.41;4966057;28;20597;-82
2024/01/08 01:18:47;;;;;;;1.77;1.10;;;-0.60;99.90;;;0.02;100.00;98758.31;4965123;28;20953;-82
2024/01/08 01:21:22;;;;;;;1.73;1.00;;;-0.50;99.90;;;0.03;100.00;98765.09;4964000;28;20502;-83
2024/01/08 01:23:52;;;;;;;1.13;1.03;;;-0.40;99.90;;;-0.10;100.00;98759.13;4962651;28;20495;-83
2024/01/08 01:26:20;;;;;;;2.73;1.20;;;-0.60;99.90;;;0.01;100.00;98764.38;4965108;28;20516;-82
2024/01/08 01:28:49;;;;;;;1.87;1.40;;;-0.50;99.90;;;0.05;100.00;98763.22;4964167;28;20461;-84
2024/01/08 01:31:17;;;;;;;1.77;1.17;;;-0.50;99.90;;;-0.02;100.00;98773.09;4964176;28;20474;-82
2024/01/08 01:33:47;;;;;;;1.43;1.10;;;-0.50;99.90;;;-0.06;100.00;98765.69;4964933;28;20546;-83
2024/01/08 01:36:16;;;;;;;1.23;1.13;;;-0.70;99.90;;;-0.01;100.00;98769.63;4964443;28;20505;-82
2024/01/08 01:38:45;;;;;;;1.20;1.10;;;-0.60;99.90;;;-0.15;100.00;98772.28;4960947;28;21035;-83
2024/01/08 01:41:13;;;;;;;2.13;1.10;;;-0.70;99.90;;;-0.12;100.00;98769.50;4964184;28;20993;-82
2024/01/08 01:43:41;;;;;;;1.23;1.13;;;-0.50;99.90;;;-0.10;100.00;98766.81;4963901;28;20475;-82
2024/01/08 01:46:25;;;;;;;1.10;1.00;;;-0.60;99.90;;;-0.01;100.00;98761.09;4963702;28;20478;-83
2024/01/08 01:48:55;;;;;;;0.80;0.80;;;-0.50;99.90;;;-0.03;100.00;98768.06;4964024;28;21180;-83
2024/01/08 01:51:27;;;;;;;2.50;1.30;;;-0.50;99.90;;;-0.06;100.00;98765.69;4963077;28;20565;-82
2024/01/08 01:53:57;;;;;;;1.30;1.20;;;-0.40;99.90;;;-0.03;100.00;98766.31;4963941;28;20565;-82
2024/01/08 01:56:26;;;;;;;2.70;1.37;;;-0.40;99.90;;;0.02;100.00;98763.44;4963131;28;20489;-82
2024/01/08 01:58:58;;;;;;;3.13;1.87;;;-0.40;99.90;;;-0.02;100.00;98762.81;4963239;28;20478;-83
2024/01/08 02:01:26;;;;;;;1.00;0.90;;;-0.50;99.90;;;-0.05;100.00;98751.94;4962555;28;20513;-82
2024/01/08 02:03:57;;;;;;;1.27;1.00;;;-0.60;99.90;;;-0.06;100.00;98760.56;4963434;28;20991;-82
2024/01/08 02:06:28;;;;;;;1.47;1.27;;;-0.60;99.90;;;-0.05;100.00;98755.31;4964244;28;20576;-82
2024/01/08 02:08:57;;;;;;;1.00;1.00;;;-0.60;99.90;;;0.03;100.00;98759.97;4963975;28;20509;-82
2024/01/08 02:11:26;;;;;;;1.20;1.10;;;-0.50;99.90;;;0.08;100.00;98750.16;4962782;28;20466;-83
2024/01/08 02:13:55;;;;;;;1.47;1.30;;;-0.50;99.90;;;0.06;100.00;98758.91;4963936;28;20476;-82
2024/01/08 02:16:24;;;;;;;1.40;1.30;;;-0.60;99.90;;;-0.04;100.00;98753.59;4963668;28;20508;-82
2024/01/08 02:18:53;;;;;;;1.43;1.33;;;-0.60;99.90;;;0.04;100.00;98746.16;4962937;28;20467;-83
2024/01/08 02:21:22;;;;;;;1.47;1.37;;;-0.40;99.90;;;0.11;100.00;98752.53;4964427;28;20543;-83
2024/01/08 02:23:52;;;;;;;1.60;1.50;;;-0.40;99.90;;;0.06;100.00;98754.59;4962673;28;20516;-82
2024/01/08 02:26:22;;;;;;;1.37;1.20;;;-0.50;99.90;;;0.10;100.00;98743.19;4964212;28;20468;-82
2024/01/08 02:28:51;;;;;;;1.57;1.20;;;-0.40;99.90;;;0.09;100.00;98738.97;4961873;28;20468;-82
2024/01/08 02:31:21;;;;;;;2.37;1.47;;;-0.50;99.90;;;0.18;100.00;98734.94;4963244;28;20474;-82
2024/01/08 02:33:50;;;;;;;1.67;1.30;;;-0.30;99.90;;;0.09;100.00;98744.13;4961673;28;20472;-82
2024/01/08 02:36:18;;;;;;;2.37;1.53;;;-0.30;99.90;;;0.07;100.00;98740.81;4961670;28;20500;-82
2024/01/08 02:38:47;;;;;;;1.90;1.20;;;-0.50;99.90;;;0.09;100.00;98749.25;4962765;28;20469;-83
2024/01/08 02:41:17;;;;;;;3.77;1.63;;;-0.40;99.90;;;0.04;100.00;98746.16;4962126;28;20834;-82
2024/01/08 02:43:45;;;;;;;2.80;2.03;;;-0.40;99.90;;;0.00;100.00;98748.13;4963376;28;20464;-83
2024/01/08 02:46:14;;;;;;;5.17;1.87;;;-0.50;99.90;;;0.05;100.00;98745.25;4964431;28;21526;-82
2024/01/08 02:48:42;;;;;;;1.27;1.17;;;-0.40;99.90;;;0.08;100.00;98751.91;4963522;28;20543;-83
2024/01/08 02:51:11;;;;;;;1.47;1.37;;;-0.40;99.90;;;0.02;100.00;98748.03;4964590;28;20492;-83
2024/01/08 02:53:39;;;;;;;1.33;1.23;;;-0.40;99.90;;;0.07;100.00;98748.50;4965704;28;20479;-82
2024/01/08 02:56:17;;;;;;;1.50;1.20;;;-0.40;99.90;;;-0.02;100.00;98747.41;4964312;28;20512;-82
2024/01/08 02:58:47;;;;;;;1.23;1.00;;;-0.50;99.90;;;0.02;100.00;98748.03;4963870;28;20472;-83
2024/01/08 03:01:16;;;;;;;1.80;1.30;;;-0.50;99.90;;;0.01;100.00;98761.78;4962976;28;20460;-82
2024/01/08 03:03:45;;;;;;;1.60;1.40;;;-0.50;99.90;;;0.08;100.00;98755.31;4964468;28;20464;-82
2024/01/08 03:06:14;;;;;;;5.60;1.40;;;-0.40;99.90;;;0.08;100.00;98757.06;4964386;28;20506;-82
2024/01/08 03:08:42;;;;;;;2.50;1.00;;;-0.50;99.90;;;0.07;100.00;98750.28;4962175;28;21005;-83
2024/01/08 03:11:11;;;;;;;1.33;1.23;;;-0.50;99.90;;;-0.07;100.00;98753.78;4963195;28;20475;-82
2024/01/08 03:13:39;;;;;;;1.57;1.47;;;-0.70;99.90;;;-0.08;100.00;98752.16;4963495;28;20468;-82
2024/01/08 03:16:10;;;;;;;1.40;1.10;;;-0.60;99.90;;;-0.11;100.00;98760.06;4963175;28;20512;-82
2024/01/08 03:18:38;;;;;;;1.43;1.17;;;-0.70;99.90;;;-0.02;100.00;98755.13;4962940;28;20477;-83
2024/01/08 03:21:08;;;;;;;1.30;1.20;;;-0.60;99.90;;;0.05;100.00;98758.09;4962207;28;20509;-82
2024/01/08 03:23:36;;;;;;;3.57;1.10;;;-0.40;99.90;;;-0.14;100.00;98755.94;4964589;28;20478;-83
2024/01/08 03:26:06;;;;;;;1.53;1.20;;;-0.60;99.90;;;-0.13;100.00;98759.31;4961382;28;20511;-83
2024/01/08 03:28:35;;;;;;;1.40;1.30;;;-0.70;99.90;;;-0.15;100.00;98746.59;4962881;28;20476;-82
2024/01/08 03:31:03;;;;;;;1.20;1.10;;;-0.60;99.90;;;-0.09;100.00;98747.91;4963862;28;20508;-83
2024/01/08 03:33:33;;;;;;;1.37;1.20;;;-0.60;99.90;;;-0.12;100.00;98748.13;4967499;28;20471;-83
2024/01/08 03:36:02;;;;;;;1.47;1.10;;;-0.60;99.90;;;-0.02;100.00;98754.28;4966195;28;20502;-82
2024/01/08 03:38:31;;;;;;;1.50;1.30;;;-0.50;99.90;;;0.03;100.00;98746.28;4967386;28;20572;-82
2024/01/08 03:40:59;;;;;;;1.30;1.20;;;-0.40;99.90;;;0.01;100.00;98751.50;4966698;28;20583;-82
2024/01/08 03:43:28;;;;;;;1.20;1.10;;;-0.50;99.90;;;-0.08;100.00;98747.81;4966660;28;20475;-82
2024/01/08 03:45:57;;;;;;;1.47;1.37;;;-0.50;99.90;;;-0.18;100.00;98745.97;4965538;28;20483;-82
2024/01/08 03:48:25;;;;;;;0.90;0.90;;;-0.60;99.90;;;-0.19;100.00;98744.31;4966974;28;20819;-83
2024/01/08 03:50:55;;;;;;;1.17;1.07;;;-0.60;99.90;;;-0.17;100.00;98745.84;4964890;28;20470;-83
2024/01/08 03:53:24;;;;;;;1.50;1.33;;;-0.60;99.90;;;-0.23;100.00;98748.00;4966511;28;20469;-82
2024/01/08 03:55:53;;;;;;;1.20;1.10;;;-0.70;99.90;;;-0.22;100.00;98739.41;4967916;28;20499;-83
2024/01/08 03:58:21;;;;;;;2.17;1.30;;;-0.70;99.90;;;-0.32;100.00;98746.06;4966797;28;20585;-83
2024/01/08 04:00:50;;;;;;;1.30;1.20;;;-0.90;99.90;;;-0.33;100.00;98752.94;4966318;28;20474;-83
2024/01/08 04:03:19;;;;;;;1.23;1.13;;;-0.80;99.90;;;-0.22;100.00;98749.66;4966346;28;20474;-83
2024/01/08 04:05:47;;;;;;;1.73;1.10;;;-0.70;99.90;;;-0.21;100.00;98744.41;4967042;28;20953;-83
2024/01/08 04:08:17;;;;;;;2.87;1.40;;;-0.70;99.90;;;-0.22;100.00;98749.66;4966610;28;20540;-82
2024/01/08 04:10:49;;;;;;;6.83;1.30;;;-0.80;99.90;;;-0.22;100.00;98745.34;4966243;28;20467;-83
2024/01/08 04:13:17;;;;;;;12.33;5.43;;;-0.80;99.90;;;-0.11;100.00;98753.19;4965522;28;20466;-80
2024/01/08 04:15:46;;;;;;;1.40;1.30;;;-0.60;99.90;;;-0.09;100.00;98755.63;4966312;28;20473;-82
2024/01/08 04:18:14;;;;;;;1.10;1.00;;;-0.60;99.90;;;-0.26;100.00;98751.63;4965393;28;21232;-82
2024/01/08 04:20:43;;;;;;;2.30;1.60;;;-0.80;99.90;;;-0.21;100.00;98753.91;4966339;28;20460;-83
2024/01/08 04:23:12;;;;;;;3.37;1.50;;;-0.70;99.90;;;-0.20;100.00;98758.09;4964930;28;20463;-84
2024/01/08 04:25:42;;;;;;;2.73;1.40;;;-0.70;99.90;;;-0.16;100.00;98757.78;4963821;28;20464;-81
2024/01/08 04:28:10;;;;;;;1.50;1.30;;;-0.70;99.90;;;-0.13;100.00;98764.47;4965758;28;20471;-81
2024/01/08 04:30:39;;;;;;;2.63;1.47;;;-0.70;99.90;;;-0.26;100.00;98763.63;4966017;28;20502;-81
2024/01/08 04:33:07;;;;;;;1.63;1.30;;;-0.80;99.90;;;-0.23;100.00;98763.44;4965473;28;20470;-82
2024/01/08 04:35:36;;;;;;;1.57;1.47;;;-0.70;99.90;;;-0.14;100.00;98762.84;4967230;28;20464;-82
2024/01/08 04:38:04;;;;;;;1.33;1.23;;;-0.70;99.90;;;-0.10;100.00;98767.66;4965707;28;20558;-82
2024/01/08 04:40:33;;;;;;;1.40;1.30;;;-0.60;99.90;;;-0.03;100.00;98758.59;4965577;28;20549;-81
2024/01/08 04:43:03;;;;;;;1.63;1.23;;;-0.60;99.90;;;-0.19;100.00;98770.03;4965368;28;20472;-82
2024/01/08 04:45:32;;;;;;;1.30;1.20;;;-0.60;99.90;;;-0.16;100.00;98773.22;4964358;28;21180;-81
2024/01/08 04:48:00;;;;;;;2.03;1.30;;;-0.60;99.90;;;-0.22;100.00;98778.75;4966178;28;20473;-82
2024/01/08 04:50:29;;;;;;;1.77;1.47;;;-0.80;99.90;;;-0.24;100.00;98783.16;4965615;28;20966;-82
2024/01/08 04:52:59;;;;;;;2.03;1.20;;;-0.80;99.90;;;-0.19;100.00;98775.16;4963853;28;20470;-80
2024/01/08 04:55:28;;;;;;;1.50;1.40;;;-0.80;99.90;;;-0.32;100.00;98779.47;4965742;28;20472;-81
2024/01/08 04:57:56;;;;;;;1.67;1.57;;;-0.90;99.90;;;-0.34;100.00;98776.16;4964764;28;20562;-81
2024/01/08 05:00:26;;;;;;;1.40;1.30;;;-0.90;99.90;;;-0.34;100.00;98782.13;4966985;28;20475;-82
2024/01/08 05:02:54;;;;;;;1.50;1.30;;;-0.90;99.90;;;-0.35;100.00;98780.50;4963344;28;20809;-80
2024/01/08 05:05:23;;;;;;;1.37;1.27;;;-0.90;99.90;;;-0.30;100.00;98777.59;4965682;28;20569;-81
2024/01/08 05:07:52;;;;;;;1.00;0.93;;;-0.80;99.90;;;-0.44;100.00;98781.09;4962195;28;20467;-81
2024/01/08 05:10:20;;;;;;;1.40;1.10;;;-1.00;99.90;;;-0.43;100.00;98781.91;4963614;28;20562;-81
2024/01/08 05:12:48;;;;;;;1.50;1.40;;;-1.00;99.90;;;-0.43;100.00;98784.47;4965483;28;20525;-81
2024/01/08 05:15:17;;;;;;;2.20;1.10;;;-1.00;99.90;;;-0.46;100.00;98776.97;4964658;28;20467;-80
2024/01/08 05:17:47;;;;;;;11.73;6.40;;;-1.00;99.90;;;-0.41;100.00;98792.91;4964899;28;20531;-80
2024/01/08 05:20:16;;;;;;;1.10;1.00;;;-1.00;99.90;;;-0.51;100.00;98788.38;4966290;28;20589;-85
2024/01/08 05:22:44;;;;;;;1.10;1.00;;;-1.00;99.90;;;-0.52;100.00;98783.31;4964805;28;20464;-82
2024/01/08 05:25:13;;;;;;;0.97;0.97;;;-0.90;99.90;;;-0.58;100.00;98781.16;4965496;28;20466;-82
2024/01/08 05:27:41;;;;;;;1.60;1.40;;;-1.10;99.90;;;-0.53;100.00;98792.78;4964634;28;21099;-81
2024/01/08 05:30:11;;;;;;;1.20;1.10;;;-1.00;99.90;;;-0.52;100.00;98786.72;4964225;28;20521;-82
2024/01/08 05:32:40;;;;;;;9.27;3.87;;;-1.10;99.90;;;-0.53;100.00;98787.66;4962994;28;20461;-82
2024/01/08 05:35:10;;;;;;;1.90;1.53;;;-1.10;99.90;;;-0.43;100.00;98797.31;4963330;28;20510;-81
2024/01/08 05:37:39;;;;;;;1.10;1.00;;;-1.00;99.90;;;-0.37;100.00;98786.63;4965233;28;21077;-81
2024/01/08 05:40:08;;;;;;;1.57;1.40;;;-0.90;99.90;;;-0.29;100.00;98780.09;4963746;28;21114;-82
2024/01/08 05:42:37;;;;;;;1.10;1.00;;;-0.80;99.90;;;-0.26;100.00;98785.03;4964542;28;20469;-81
2024/01/08 05:45:07;;;;;;;1.60;1.30;;;-0.80;99.90;;;-0.31;100.00;98786.25;4963506;28;20520;-81
2024/01/08 05:47:35;;;;;;;1.47;1.20;;;-0.90;99.90;;;-0.27;100.00;98795.38;4966145;28;20463;-82
2024/01/08 05:50:05;;;;;;;1.30;1.20;;;-0.80;99.90;;;-0.30;100.00;98798.16;4964947;28;20528;-81
2024/01/08 05:52:35;;;;;;;1.33;1.23;;;-0.90;99.90;;;-0.31;100.00;98796.53;4965455;28;20488;-82
2024/01/08 05:55:05;;;;;;;2.80;1.80;;;-0.80;99.90;;;-0.25;100.00;98791.00;4963660;28;20971;-81
2024/01/08 05:57:34;;;;;;;1.20;1.10;;;-0.80;99.90;;;-0.27;100.00;98801.34;4961989;28;20715;-81
2024/01/08 06:00:03;;;;;;;1.57;1.33;;;-0.70;99.90;;;-0.41;100.00;98805.75;4963392;28;20471;-81
2024/01/08 06:02:32;;;;;;;1.30;1.20;;;-0.80;99.90;;;-0.40;100.00;98803.09;4963871;28;20856;-81
2024/01/08 06:05:00;;;;;;;1.83;1.20;;;-0.80;99.90;;;-0.47;100.00;98801.00;4961641;28;20462;-81
2024/01/08 06:07:30;;;;;;;6.83;4.40;;;-1.00;99.90;;;-0.51;100.00;98806.34;4964227;28;20481;-84
2024/01/08 06:10:01;;;;;;;1.30;1.20;;;-1.10;99.90;;;-0.50;100.00;98807.19;4962287;28;20483;-82
2024/01/08 06:12:29;;;;;;;1.73;1.50;;;-0.90;99.90;;;-0.52;100.00;98814.97;4963810;28;20469;-82
2024/01/08 06:16:41;;;;;;;1.73;1.48;;;-1.00;99.90;;;-0.55;100.00;98806.63;5115370;27;21223;-81
2024/01/08 06:19:10;;;;;;;1.63;1.40;;;-1.10;99.90;;;-0.48;100.00;98809.63;5095805;28;20209;-82
2024/01/08 06:21:38;;;;;;;1.60;1.50;;;-1.00;99.90;;;-0.49;100.00;98808.00;5095174;28;20477;-82
2024/01/08 16:54:25;;;;;;;4.80;3.10;;;-2.90;99.90;;;-2.41;100.00;99020.34;5076486;27;21092;-81
2024/01/08 16:56:54;;;;;;;4.17;2.67;;;-2.90;99.90;;;-2.39;100.00;99015.94;5065846;28;20494;-81
2024/01/08 16:59:22;;;;;;;8.50;3.10;;;-2.90;99.90;;;-2.35;100.00;99022.56;5056606;28;20469;-83
2024/01/08 17:01:51;;;;;;;9.07;3.10;;;-2.80;99.90;;;-2.32;100.00;99022.38;5055057;28;20468;-83
2024/01/08 17:04:20;;;;;;;6.13;3.30;;;-2.70;99.90;;;-2.22;100.00;99021.00;5056180;28;20977;-84
2024/01/08 17:06:49;;;;;;;3.90;2.70;;;-2.60;99.90;;;-2.18;100.00;99027.59;5056472;28;21016;-84
2024/01/08 17:09:17;;;;;;;5.73;3.00;;;-2.60;99.90;;;-2.11;100.00;99032.31;5057659;28;20461;-84
2024/01/08 17:11:47;;;;;;;4.20;3.10;;;-2.60;99.90;;;-2.05;100.00;99031.16;5054884;28;20950;-84
2024/01/08 17:14:16;;;;;;;3.87;2.70;;;-2.60;99.90;;;-2.02;100.00;99031.00;5055945;28;20496;-83
2024/01/08 17:16:44;;;;;;;5.40;3.07;;;-2.60;99.90;;;-1.95;100.00;99032.31;5055027;28;20533;-83
2024/01/08 17:19:13;;;;;;;5.37;3.03;;;-2.40;99.90;;;-2.02;100.00;99033.56;5058439;28;20480;-83
2024/01/08 17:21:41;;;;;;;2.97;2.20;;;-2.50;99.90;;;-2.03;100.00;99044.69;5054970;28;20458;-84
2024/01/08 17:24:10;;;;;;;5.90;3.10;;;-2.50;99.90;;;-2.11;100.00;99042.56;5056309;28;20467;-84
2024/01/08 17:26:39;;;;;;;4.47;3.07;;;-2.50;99.90;;;-2.10;100.00;99046.78;5056216;28;20463;-84
2024/01/08 17:29:09;;;;;;;7.97;3.77;;;-2.50;99.90;;;-2.13;100.00;99053.78;5056739;28;20936;-83
2024/01/08 17:31:38;;;;;;;3.13;2.83;;;-2.70;99.90;;;-2.19;100.00;99054.13;5056714;28;20456;-84
2024/01/08 17:34:07;;;;;;;9.63;3.47;;;-2.60;99.90;;;-2.13;100.00;99061.47;5054082;28;20492;-82
2024/01/08 17:36:35;;;;;;;5.90;3.47;;;-2.60;99.90;;;-2.26;100.00;99073.31;5053810;28;20515;-83
2024/01/08 17:39:04;;;;;;;4.20;3.00;;;-2.80;99.90;;;-2.21;100.00;99067.00;5053864;28;20460;-83
2024/01/08 17:41:32;;;;;;;4.13;3.23;;;-2.80;99.90;;;-2.12;100.00;99065.72;5054365;28;20998;-82
2024/01/08 17:44:01;;;;;;;3.57;2.80;;;-2.70;99.90;;;-2.11;100.00;99067.34;5056375;28;20564;-83
2024/01/08 17:46:31;;;;;;;5.77;3.63;;;-2.60;99.90;;;-2.10;100.00;99074.94;5053043;28;20465;-83
2024/01/08 17:49:03;;;;;;;7.33;3.40;;;-2.70;99.90;;;-2.10;100.00;99069.00;5053173;28;20457;-83
2024/01/08 17:51:32;;;;;;;11.17;5.70;;;-2.60;99.90;;;-2.12;100.00;99074.19;5052072;28;20574;-83
2024/01/08 17:54:00;;;;;;;8.97;3.20;;;-2.60;99.90;;;-2.21;100.00;99068.75;5052851;28;20500;-84
2024/01/08 17:56:29;;;;;;;4.70;3.47;;;-2.60;99.90;;;-2.20;100.00;99073.78;5052923;28;20839;-83
2024/01/08 17:58:57;;;;;;;10.00;3.27;;;-2.60;99.90;;;-2.22;100.00;99077.34;5055896;28;20539;-83
2024/01/08 18:01:26;;;;;;;6.57;3.50;;;-2.80;99.90;;;-2.21;100.00;99081.53;5055433;28;20617;-84
2024/01/08 18:03:56;;;;;;;6.70;3.83;;;-2.70;99.90;;;-2.26;100.00;99088.66;5051290;28;20481;-83
2024/01/08 18:06:24;;;;;;;6.07;3.63;;;-2.80;99.90;;;-2.26;100.00;99079.25;5039779;28;20487;-83
2024/01/08 18:08:53;;;;;;;4.23;3.20;;;-2.70;99.90;;;-2.39;100.00;99082.50;5040915;28;20523;-82
2024/01/08 18:11:21;;;;;;;5.10;3.27;;;-3.00;99.90;;;-2.31;100.00;99085.50;5041348;28;20457;-83
2024/01/08 18:13:50;;;;;;;6.20;3.20;;;-2.90;99.90;;;-2.27;100.00;99087.84;5041319;28;20505;-83
2024/01/08 18:16:18;;;;;;;6.03;3.43;;;-2.70;99.90;;;-2.34;100.00;99098.47;5037930;28;20493;-82
2024/01/08 18:18:48;;;;;;;9.80;3.90;;;-2.60;99.90;;;-2.26;100.00;99098.91;5039124;28;20819;-82
2024/01/08 18:21:29;;;;;;;4.87;3.60;;;-2.70;99.90;;;-2.24;100.00;99099.63;5040235;28;20568;-81
2024/01/08 18:23:57;;;;;;;5.23;3.30;;;-2.70;99.90;;;-2.29;100.00;99106.75;5040244;28;20707;-82
2024/01/08 18:26:26;;;;;;;7.60;3.63;;;-2.80;99.90;;;-2.32;100.00;99107.72;5038443;28;20871;-81
2024/01/08 18:28:54;;;;;;;4.87;3.23;;;-2.80;99.90;;;-2.42;100.00;99103.16;5039261;28;20465;-82
2024/01/08 18:31:23;;;;;;;6.97;3.10;;;-2.90;99.90;;;-2.45;100.00;99103.31;5038402;28;20480;-82
2024/01/08 18:33:52;;;;;;;4.90;3.07;;;-2.90;99.90;;;-2.37;100.00;99106.31;5037975;28;20944;-81
2024/01/08 18:36:21;;;;;;;7.40;4.80;;;-2.90;99.90;;;-2.34;100.00;99109.56;5038254;28;20531;-82
2024/01/08 18:38:52;;;;;;;6.37;3.50;;;-2.90;99.90;;;-2.36;100.00;99118.22;5037654;28;20994;-81
2024/01/08 18:41:20;;;;;;;8.23;4.60;;;-2.90;99.90;;;-2.29;100.00;99107.56;5043142;28;20471;-84
2024/01/08 18:43:49;;;;;;;8.33;4.43;;;-2.80;99.90;;;-2.27;100.00;99110.88;5044387;28;20531;-83
2024/01/08 18:46:18;;;;;;;5.13;3.20;;;-2.80;99.90;;;-2.29;100.00;99114.44;5042373;28;20475;-83
2024/01/08 18:48:46;;;;;;;5.10;3.20;;;-2.80;99.90;;;-2.34;100.00;99116.41;5040982;28;21022;-83
2024/01/08 18:51:15;;;;;;;5.43;2.97;;;-2.90;99.90;;;-2.37;100.00;99121.69;5039770;28;20471;-83
2024/01/08 18:53:43;;;;;;;4.30;3.23;;;-2.90;99.90;;;-2.46;100.00;99127.28;5039921;28;20493;-84
2024/01/08 18:56:14;;;;;;;8.33;3.70;;;-2.90;99.90;;;-2.51;100.00;99124.97;5041399;28;20843;-83
2024/01/08 18:58:42;;;;;;;8.77;3.20;;;-3.00;99.90;;;-2.46;100.00;99132.41;5041214;28;20544;-84
2024/01/08 19:01:11;;;;;;;4.63;3.43;;;-3.00;99.90;;;-2.50;100.00;99136.03;5039496;28;20804;-80
2024/01/08 19:03:39;;;;;;;7.90;4.90;;;-3.00;99.90;;;-2.53;100.00;99136.19;5040534;28;20472;-84
2024/01/08 19:06:08;;;;;;;11.17;3.70;;;-3.10;99.90;;;-2.48;100.00;99140.16;5042709;28;20494;-84
2024/01/08 19:08:37;;;;;;;5.20;3.80;;;-3.00;99.90;;;-2.47;100.00;99139.28;5042959;28;20468;-86
2024/01/08 19:11:06;;;;;;;6.70;3.90;;;-2.90;99.90;;;-2.54;100.00;99140.47;5045265;28;20578;-86
2024/01/08 19:13:38;;;;;;;6.83;3.70;;;-3.00;99.90;;;-2.53;100.00;99148.06;5043506;28;20546;-85
2024/01/08 19:16:07;;;;;;;7.90;3.70;;;-2.90;99.90;;;-2.50;100.00;99149.66;5041576;28;20468;-83
2024/01/08 19:18:36;;;;;;;6.63;3.83;;;-2.90;99.90;;;-2.56;100.00;99160.19;5041068;28;20458;-83
2024/01/08 19:21:05;;;;;;;7.87;3.37;;;-3.10;99.90;;;-2.60;100.00;99171.50;5039154;28;20949;-83
2024/01/08 19:23:35;;;;;;;5.90;3.47;;;-3.20;99.90;;;-2.69;100.00;99162.56;5041019;28;20607;-83
2024/01/08 19:26:04;;;;;;;11.13;4.90;;;-3.20;99.90;;;-2.81;100.00;99163.16;5041435;28;20461;-82
2024/01/08 19:28:39;;;;;;;6.40;3.30;;;-3.40;99.90;;;-2.80;100.00;99172.50;5041841;28;20547;-83
2024/01/08 19:31:09;;;;;;;6.50;4.07;;;-3.30;99.90;;;-2.93;100.00;99171.44;5040170;28;20462;-84
2024/01/08 19:33:38;;;;;;;7.77;3.00;;;-3.50;99.90;;;-2.89;100.00;99170.41;5042598;28;20466;-84
2024/01/08 19:36:07;;;;;;;4.67;3.30;;;-3.40;99.90;;;-2.89;100.00;99175.53;5040596;28;20554;-83
2024/01/08 19:38:36;;;;;;;6.97;3.57;;;-3.30;99.90;;;-2.88;100.00;99177.16;5039936;28;20446;-84
2024/01/08 19:41:05;;;;;;;6.60;3.87;;;-3.40;99.90;;;-2.99;100.00;99184.56;5040284;28;20496;-83
2024/01/08 19:43:34;;;;;;;6.20;3.90;;;-3.50;99.90;;;-3.03;100.00;99185.59;5040830;28;20457;-84
2024/01/08 19:46:04;;;;;;;4.10;2.30;;;-3.40;99.90;;;-2.97;100.00;99187.84;5037582;28;20456;-81
2024/01/08 19:48:33;;;;;;;5.10;3.27;;;-3.40;99.90;;;-2.94;100.00;99194.53;5036314;28;20465;-83
2024/01/08 19:51:01;;;;;;;7.97;3.90;;;-3.40;99.90;;;-3.03;100.00;99195.00;5033163;28;20989;-81
2024/01/08 19:53:30;;;;;;;8.27;3.93;;;-3.60;99.90;;;-3.00;100.00;99190.56;5036177;28;20499;-85
2024/01/08 19:55:59;;;;;;;4.37;3.20;;;-3.50;99.90;;;-3.08;100.00;99185.81;5042320;28;20489;-86
2024/01/08 19:58:28;;;;;;;6.33;3.33;;;-3.40;99.90;;;-3.05;100.00;99182.25;5038092;28;20468;-84
2024/01/08 20:00:56;;;;;;;15.23;5.73;;;-3.40;99.90;;;-3.09;100.00;99189.25;5038395;28;20494;-83
2024/01/08 20:03:26;;;;;;;9.90;3.63;;;-3.50;99.90;;;-3.09;100.00;99193.56;5037491;28;20554;-81
2024/01/08 20:05:55;;;;;;;6.47;3.87;;;-3.70;99.90;;;-3.13;100.00;99192.88;5039896;28;20877;-81
2024/01/08 20:08:24;;;;;;;6.70;4.23;;;-3.70;99.90;;;-3.14;100.00;99192.94;5036859;28;20443;-82
2024/01/08 20:10:52;;;;;;;5.07;3.10;;;-3.50;99.90;;;-3.21;100.00;99191.59;5040555;28;20462;-82
2024/01/08 20:13:21;;;;;;;4.50;3.37;;;-3.70;99.90;;;-3.28;100.00;99185.09;5038696;28;20473;-83
2024/01/08 20:15:49;;;;;;;7.13;3.73;;;-3.80;99.90;;;-3.23;100.00;99183.97;5038825;28;21370;-82
2024/01/08 20:18:18;;;;;;;7.63;3.73;;;-3.80;99.90;;;-3.10;100.00;99194.47;5037867;28;20505;-82
2024/01/08 20:20:48;;;;;;;5.00;3.10;;;-3.60;99.90;;;-3.15;100.00;99186.16;5038921;28;20467;-82
2024/01/08 20:23:17;;;;;;;6.37;3.77;;;-3.70;99.90;;;-3.24;100.00;99184.06;5037040;28;20824;-82
2024/01/08 20:25:45;;;;;;;5.57;4.40;;;-3.70;99.90;;;-3.19;100.00;99192.31;5037486;28;20528;-82
2024/01/08 20:28:14;;;;;;;4.30;3.33;;;-3.70;99.90;;;-3.19;100.00;99192.31;5037249;28;20938;-83
2024/01/08 20:30:42;;;;;;;5.87;4.00;;;-3.70;99.90;;;-3.32;100.00;99199.75;5037910;28;20473;-82
2024/01/08 20:33:11;;;;;;;6.30;3.10;;;-3.80;99.90;;;-3.37;100.00;99193.22;5036129;28;20467;-82
2024/01/08 20:35:40;;;;;;;8.13;3.47;;;-3.90;99.90;;;-3.25;100.00;99197.75;5037541;28;20500;-81
2024/01/08 20:38:09;;;;;;;4.90;2.80;;;-3.80;99.90;;;-3.25;100.00;99202.84;5037005;28;20464;-81
2024/01/08 20:40:38;;;;;;;4.87;3.03;;;-3.80;99.90;;;-3.15;100.00;99201.50;5038222;28;20831;-83
2024/01/08 20:43:07;;;;;;;3.53;2.60;;;-3.60;99.90;;;-3.33;100.00;99200.66;5035714;28;20478;-83
2024/01/08 20:45:35;;;;;;;18.57;6.13;;;-3.80;99.90;;;-3.35;100.00;99202.47;5035925;28;20845;-83
2024/01/08 20:48:05;;;;;;;6.07;4.10;;;-3.90;99.90;;;-3.33;100.00;99200.66;5037892;28;20467;-82
2024/01/08 20:50:34;;;;;;;3.93;3.43;;;-3.80;99.90;;;-3.35;100.00;99202.47;5036109;28;20982;-82
2024/01/08 20:53:02;;;;;;;6.50;3.70;;;-3.80;99.90;;;-3.40;100.00;99213.81;5037575;28;20486;-82